sensor_id;sensor_type;location;lat;lon;timestamp;pressure;altitude;pressure_sealevel;temperature;humidity
4149;BME280;2088;51.032;7.082;2022-11-15T00:01:49;48191.53;;;-142.28;100.00
4149;BME280;2088;51.032;7.082;2022-11-15T00:04:16;48177.97;;;-142.28;100.00
4149;BME280;2088;51.032;7.082;2022-11-15T00:06:42;48207.00;;;-142.28;100.00
4149;BME280;2088;51.032;7.082;2022-11-15T00:09:10;48176.03;;;-142.28;100.00
4149;BME280;2088;51.032;7.082;2022-11-15T00:11:36;48201.19;;;-142.28;100.00
4149;BME280;2088;51.032;7.082;2022-11-15T00:14:03;48210.88;;;-142.28;100.00
4149;BME280;2088;51.032;7.082;2022-11-15T00:16:29;48189.59;;;-142.28;100.00
4149;BME280;2088;51.032;7.082;2022-11-15T00:18:56;48199.25;;;-142.28;100.00
4149;BME280;2088;51.032;7.082;2022-11-15T00:21:23;48193.47;;;-142.28;100.00
4149;BME280;2088;51.032;7.082;2022-11-15T00:23:49;48230.22;;;-142.28;100.00
4149;BME280;2088;51.032;7.082;2022-11-15T00:26:17;48210.88;;;-142.28;100.00
4149;BME280;2088;51.032;7.082;2022-11-15T00:28:44;48201.19;;;-142.28;100.00
4149;BME280;2088;51.032;7.082;2022-11-15T00:31:13;48191.53;;;-142.28;100.00
4149;BME280;2088;51.032;7.082;2022-11-15T00:33:42;48203.13;;;-142.28;100.00
4149;BME280;2088;51.032;7.082;2022-11-15T00:36:09;48203.13;;;-142.28;100.00
4149;BME280;2088;51.032;7.082;2022-11-15T00:38:37;48197.31;;;-142.28;100.00
4149;BME280;2088;51.032;7.082;2022-11-15T00:41:05;48222.47;;;-142.28;100.00
4149;BME280;2088;51.032;7.082;2022-11-15T00:43:33;48208.94;;;-142.28;100.00
4149;BME280;2088;51.032;7.082;2022-11-15T00:46:00;48218.63;;;-142.28;100.00
4149;BME280;2088;51.032;7.082;2022-11-15T00:48:27;48222.47;;;-142.28;100.00
4149;BME280;2088;51.032;7.082;2022-11-15T00:50:54;48237.97;;;-142.28;100.00
4149;BME280;2088;51.032;7.082;2022-11-15T00:53:20;48218.63;;;-142.28;100.00
4149;BME280;2088;51.032;7.082;2022-11-15T00:55:47;48187.66;;;-142.28;100.00
4149;BME280;2088;51.032;7.082;2022-11-15T00:58:13;48236.03;;;-142.28;100.00
4149;BME280;2088;51.032;7.082;2022-11-15T01:00:41;48216.69;;;-142.28;100.00
4149;BME280;2088;51.032;7.082;2022-11-15T01:03:07;48191.53;;;-142.28;100.00
4149;BME280;2088;51.032;7.082;2022-11-15T01:05:36;48176.03;;;-142.28;100.00
4149;BME280;2088;51.032;7.082;2022-11-15T01:08:03;48205.06;;;-142.28;100.00
4149;BME280;2088;51.032;7.082;2022-11-15T01:10:30;48199.25;;;-142.28;100.00
4149;BME280;2088;51.032;7.082;2022-11-15T01:12:56;48199.25;;;-142.28;100.00
4149;BME280;2088;51.032;7.082;2022-11-15T01:15:23;48230.22;;;-142.28;100.00
4149;BME280;2088;51.032;7.082;2022-11-15T01:17:51;48214.75;;;-142.28;100.00
4149;BME280;2088;51.032;7.082;2022-11-15T01:20:17;48193.47;;;-142.28;100.00
4149;BME280;2088;51.032;7.082;2022-11-15T01:22:44;48218.63;;;-142.28;100.00
4149;BME280;2088;51.032;7.082;2022-11-15T01:25:11;48183.78;;;-142.28;100.00
4149;BME280;2088;51.032;7.082;2022-11-15T01:27:37;48216.69;;;-142.28;100.00
4149;BME280;2088;51.032;7.082;2022-11-15T01:30:05;48232.16;;;-142.28;100.00
4149;BME280;2088;51.032;7.082;2022-11-15T01:32:32;48181.84;;;-142.28;100.00
4149;BME280;2088;51.032;7.082;2022-11-15T01:35:00;48220.56;;;-142.28;100.00
4149;BME280;2088;51.032;7.082;2022-11-15T01:37:26;48191.53;;;-142.28;100.00
4149;BME280;2088;51.032;7.082;2022-11-15T01:39:52;48249.59;;;-142.28;100.00
4149;BME280;2088;51.032;7.082;2022-11-15T01:42:19;48216.69;;;-142.28;100.00
4149;BME280;2088;51.032;7.082;2022-11-15T01:44:47;48220.56;;;-142.28;100.00
4149;BME280;2088;51.032;7.082;2022-11-15T01:47:16;48249.59;;;-142.28;100.00
4149;BME280;2088;51.032;7.082;2022-11-15T01:49:50;48216.69;;;-142.28;100.00
4149;BME280;2088;51.032;7.082;2022-11-15T01:52:21;48203.13;;;-142.28;100.00
4149;BME280;2088;51.032;7.082;2022-11-15T01:54:50;48232.16;;;-142.28;100.00
4149;BME280;2088;51.032;7.082;2022-11-15T01:57:18;48208.94;;;-142.28;100.00
4149;BME280;2088;51.032;7.082;2022-11-15T01:59:45;48220.56;;;-142.28;100.00
4149;BME280;2088;51.032;7.082;2022-11-15T02:02:12;48199.25;;;-142.28;100.00
4149;BME280;2088;51.032;7.082;2022-11-15T02:04:41;48216.69;;;-142.28;100.00
4149;BME280;2088;51.032;7.082;2022-11-15T02:07:10;48208.94;;;-142.28;99.91
4149;BME280;2088;51.032;7.082;2022-11-15T02:09:39;48243.78;;;-142.28;100.00
4149;BME280;2088;51.032;7.082;2022-11-15T02:12:07;48208.94;;;-142.28;100.00
4149;BME280;2088;51.032;7.082;2022-11-15T02:14:36;48236.03;;;-142.28;100.00
4149;BME280;2088;51.032;7.082;2022-11-15T02:17:12;48212.81;;;-142.28;100.00
4149;BME280;2088;51.032;7.082;2022-11-15T02:20:14;48214.75;;;-142.28;99.64
4149;BME280;2088;51.032;7.082;2022-11-15T02:23:02;48218.63;;;-142.28;99.69
4149;BME280;2088;51.032;7.082;2022-11-15T02:25:40;48224.41;;;-142.28;99.77
4149;BME280;2088;51.032;7.082;2022-11-15T02:28:35;48232.16;;;-142.28;99.94
4149;BME280;2088;51.032;7.082;2022-11-15T02:31:11;48201.19;;;-142.28;99.95
4149;BME280;2088;51.032;7.082;2022-11-15T02:33:46;48230.22;;;-142.28;100.00
4149;BME280;2088;51.032;7.082;2022-11-15T02:36:20;48216.69;;;-142.28;100.00
4149;BME280;2088;51.032;7.082;2022-11-15T02:38:56;48226.34;;;-142.28;99.97
4149;BME280;2088;51.032;7.082;2022-11-15T02:41:30;48237.97;;;-142.28;100.00
4149;BME280;2088;51.032;7.082;2022-11-15T02:44:02;48230.22;;;-142.28;100.00
4149;BME280;2088;51.032;7.082;2022-11-15T02:46:35;48197.31;;;-142.28;100.00
4149;BME280;2088;51.032;7.082;2022-11-15T02:49:21;48234.09;;;-142.28;100.00
4149;BME280;2088;51.032;7.082;2022-11-15T02:51:49;48201.19;;;-142.28;100.00
4149;BME280;2088;51.032;7.082;2022-11-15T02:54:20;48249.59;;;-142.28;100.00
4149;BME280;2088;51.032;7.082;2022-11-15T02:56:48;48208.94;;;-142.28;100.00
4149;BME280;2088;51.032;7.082;2022-11-15T02:59:29;48251.50;;;-142.28;100.00
4149;BME280;2088;51.032;7.082;2022-11-15T03:02:10;48236.03;;;-142.28;100.00
4149;BME280;2088;51.032;7.082;2022-11-15T03:04:44;48228.28;;;-142.28;100.00
4149;BME280;2088;51.032;7.082;2022-11-15T03:07:14;48203.13;;;-142.28;100.00
4149;BME280;2088;51.032;7.082;2022-11-15T03:09:50;48237.97;;;-142.28;100.00
4149;BME280;2088;51.032;7.082;2022-11-15T03:12:25;48247.66;;;-142.28;100.00
4149;BME280;2088;51.032;7.082;2022-11-15T03:14:56;48232.16;;;-142.28;100.00
4149;BME280;2088;51.032;7.082;2022-11-15T03:17:28;48218.63;;;-142.28;100.00
4149;BME280;2088;51.032;7.082;2022-11-15T03:19:57;48218.63;;;-142.28;100.00
4149;BME280;2088;51.032;7.082;2022-11-15T03:22:27;48230.22;;;-142.28;99.72
4149;BME280;2088;51.032;7.082;2022-11-15T03:24:58;48241.84;;;-142.28;100.00
4149;BME280;2088;51.032;7.082;2022-11-15T03:27:30;48243.78;;;-142.28;99.59
4149;BME280;2088;51.032;7.082;2022-11-15T03:30:00;48201.19;;;-142.28;99.63
4149;BME280;2088;51.032;7.082;2022-11-15T03:32:30;48237.97;;;-142.28;100.00
4149;BME280;2088;51.032;7.082;2022-11-15T03:35:00;48234.09;;;-142.28;100.00
4149;BME280;2088;51.032;7.082;2022-11-15T03:37:32;48230.22;;;-142.28;100.00
4149;BME280;2088;51.032;7.082;2022-11-15T03:40:02;48214.75;;;-142.28;100.00
4149;BME280;2088;51.032;7.082;2022-11-15T03:42:32;48239.91;;;-142.28;100.00
4149;BME280;2088;51.032;7.082;2022-11-15T03:45:08;48236.03;;;-142.28;100.00
4149;BME280;2088;51.032;7.082;2022-11-15T03:47:42;48230.22;;;-142.28;100.00
4149;BME280;2088;51.032;7.082;2022-11-15T03:50:13;48226.34;;;-142.28;100.00
4149;BME280;2088;51.032;7.082;2022-11-15T03:52:41;48226.34;;;-142.28;100.00
4149;BME280;2088;51.032;7.082;2022-11-15T03:55:10;48253.44;;;-142.28;100.00
4149;BME280;2088;51.032;7.082;2022-11-15T03:57:37;48253.44;;;-142.28;100.00
4149;BME280;2088;51.032;7.082;2022-11-15T04:00:05;48228.28;;;-142.28;100.00
4149;BME280;2088;51.032;7.082;2022-11-15T04:02:31;48263.13;;;-142.28;99.86
4149;BME280;2088;51.032;7.082;2022-11-15T04:04:59;48239.91;;;-142.28;100.00
4149;BME280;2088;51.032;7.082;2022-11-15T04:07:26;48220.56;;;-142.28;100.00
4149;BME280;2088;51.032;7.082;2022-11-15T04:09:52;48207.00;;;-142.28;99.24
4149;BME280;2088;51.032;7.082;2022-11-15T04:12:33;48237.97;;;-142.28;99.84
4149;BME280;2088;51.032;7.082;2022-11-15T04:15:01;48234.09;;;-142.28;99.79
4149;BME280;2088;51.032;7.082;2022-11-15T04:17:36;48210.88;;;-142.28;99.86
4149;BME280;2088;51.032;7.082;2022-11-15T04:20:06;48263.13;;;-142.28;99.27
4149;BME280;2088;51.032;7.082;2022-11-15T04:22:52;48216.69;;;-142.28;98.75
4149;BME280;2088;51.032;7.082;2022-11-15T04:25:37;48207.00;;;-142.28;98.59
4149;BME280;2088;51.032;7.082;2022-11-15T04:28:03;48237.97;;;-142.28;98.58
4149;BME280;2088;51.032;7.082;2022-11-15T04:30:30;48232.16;;;-142.28;98.69
4149;BME280;2088;51.032;7.082;2022-11-15T04:32:56;48218.63;;;-142.28;98.75
4149;BME280;2088;51.032;7.082;2022-11-15T04:35:24;48255.38;;;-142.28;98.93
4149;BME280;2088;51.032;7.082;2022-11-15T04:37:51;48214.75;;;-142.28;98.22
4149;BME280;2088;51.032;7.082;2022-11-15T04:40:17;48241.84;;;-142.28;98.48
4149;BME280;2088;51.032;7.082;2022-11-15T04:42:44;48243.78;;;-142.28;98.56
4149;BME280;2088;51.032;7.082;2022-11-15T04:45:11;48218.63;;;-142.28;99.05
4149;BME280;2088;51.032;7.082;2022-11-15T04:47:37;48237.97;;;-142.28;98.62
4149;BME280;2088;51.032;7.082;2022-11-15T04:50:04;48237.97;;;-142.28;99.08
4149;BME280;2088;51.032;7.082;2022-11-15T04:52:32;48245.72;;;-142.28;98.77
4149;BME280;2088;51.032;7.082;2022-11-15T04:54:59;48237.97;;;-142.28;98.51
4149;BME280;2088;51.032;7.082;2022-11-15T04:57:25;48218.63;;;-142.28;98.65
4149;BME280;2088;51.032;7.082;2022-11-15T04:59:52;48249.59;;;-142.28;99.27
4149;BME280;2088;51.032;7.082;2022-11-15T05:02:18;48218.63;;;-142.28;99.15
4149;BME280;2088;51.032;7.082;2022-11-15T05:04:45;48228.28;;;-142.28;99.26
4149;BME280;2088;51.032;7.082;2022-11-15T05:07:11;48226.34;;;-142.28;99.14
4149;BME280;2088;51.032;7.082;2022-11-15T05:09:39;48241.84;;;-142.28;99.24
4149;BME280;2088;51.032;7.082;2022-11-15T05:12:05;48234.09;;;-142.28;98.90
4149;BME280;2088;51.032;7.082;2022-11-15T05:14:32;48226.34;;;-142.28;98.76
4149;BME280;2088;51.032;7.082;2022-11-15T05:16:58;48210.88;;;-142.28;99.19
4149;BME280;2088;51.032;7.082;2022-11-15T05:19:25;48247.66;;;-142.28;99.16
4149;BME280;2088;51.032;7.082;2022-11-15T05:21:51;48230.22;;;-142.28;99.48
4149;BME280;2088;51.032;7.082;2022-11-15T05:24:18;48218.63;;;-142.28;99.70
4149;BME280;2088;51.032;7.082;2022-11-15T05:26:45;48253.44;;;-142.28;99.92
4149;BME280;2088;51.032;7.082;2022-11-15T05:29:12;48222.47;;;-142.28;100.00
4149;BME280;2088;51.032;7.082;2022-11-15T05:31:40;48245.72;;;-142.28;100.00
4149;BME280;2088;51.032;7.082;2022-11-15T05:34:07;48222.47;;;-142.28;100.00
4149;BME280;2088;51.032;7.082;2022-11-15T05:36:35;48239.91;;;-142.28;99.34
4149;BME280;2088;51.032;7.082;2022-11-15T05:39:04;48255.38;;;-142.28;99.22
4149;BME280;2088;51.032;7.082;2022-11-15T05:41:33;48199.25;;;-142.28;99.69
4149;BME280;2088;51.032;7.082;2022-11-15T05:44:03;48245.72;;;-142.28;100.00
4149;BME280;2088;51.032;7.082;2022-11-15T05:46:34;48249.59;;;-142.28;100.00
4149;BME280;2088;51.032;7.082;2022-11-15T05:49:01;48241.84;;;-142.28;100.00
4149;BME280;2088;51.032;7.082;2022-11-15T05:51:29;48237.97;;;-142.28;99.85
4149;BME280;2088;51.032;7.082;2022-11-15T05:53:56;48245.72;;;-142.28;100.00
4149;BME280;2088;51.032;7.082;2022-11-15T05:56:24;48257.31;;;-142.28;100.00
4149;BME280;2088;51.032;7.082;2022-11-15T05:58:52;48241.84;;;-142.28;100.00
4149;BME280;2088;51.032;7.082;2022-11-15T06:01:21;48276.66;;;-142.28;100.00
4149;BME280;2088;51.032;7.082;2022-11-15T06:03:48;48241.84;;;-142.28;100.00
4149;BME280;2088;51.032;7.082;2022-11-15T06:06:14;48251.50;;;-142.28;100.00
4149;BME280;2088;51.032;7.082;2022-11-15T06:08:41;48261.19;;;-142.28;100.00
4149;BME280;2088;51.032;7.082;2022-11-15T06:11:07;48249.59;;;-142.28;100.00
4149;BME280;2088;51.032;7.082;2022-11-15T06:13:34;48236.03;;;-142.28;100.00
4149;BME280;2088;51.032;7.082;2022-11-15T06:16:01;48280.53;;;-142.28;100.00
4149;BME280;2088;51.032;7.082;2022-11-15T06:18:31;48257.31;;;-142.28;100.00
4149;BME280;2088;51.032;7.082;2022-11-15T06:20:58;48263.13;;;-142.28;100.00
4149;BME280;2088;51.032;7.082;2022-11-15T06:23:25;48261.19;;;-142.28;100.00
4149;BME280;2088;51.032;7.082;2022-11-15T06:25:52;48265.06;;;-142.28;100.00
4149;BME280;2088;51.032;7.082;2022-11-15T06:28:18;48288.28;;;-142.28;100.00
4149;BME280;2088;51.032;7.082;2022-11-15T06:30:45;48286.34;;;-142.28;100.00
4149;BME280;2088;51.032;7.082;2022-11-15T06:33:11;48286.34;;;-142.28;100.00
4149;BME280;2088;51.032;7.082;2022-11-15T06:35:39;48282.47;;;-142.28;100.00
4149;BME280;2088;51.032;7.082;2022-11-15T06:38:07;48290.22;;;-142.28;100.00
4149;BME280;2088;51.032;7.082;2022-11-15T06:40:35;48311.50;;;-142.28;100.00
4149;BME280;2088;51.032;7.082;2022-11-15T06:43:02;48280.53;;;-142.28;100.00
4149;BME280;2088;51.032;7.082;2022-11-15T06:45:29;48280.53;;;-142.28;100.00
4149;BME280;2088;51.032;7.082;2022-11-15T06:47:56;48319.25;;;-142.28;100.00
4149;BME280;2088;51.032;7.082;2022-11-15T06:50:23;48276.66;;;-142.28;100.00
4149;BME280;2088;51.032;7.082;2022-11-15T06:52:51;48270.88;;;-142.28;100.00
4149;BME280;2088;51.032;7.082;2022-11-15T06:55:17;48303.78;;;-142.28;100.00
4149;BME280;2088;51.032;7.082;2022-11-15T06:57:48;48303.78;;;-142.28;100.00
4149;BME280;2088;51.032;7.082;2022-11-15T07:00:16;48311.50;;;-142.28;100.00
4149;BME280;2088;51.032;7.082;2022-11-15T07:02:43;48309.56;;;-142.28;100.00
4149;BME280;2088;51.032;7.082;2022-11-15T07:05:10;48307.63;;;-142.28;100.00
4149;BME280;2088;51.032;7.082;2022-11-15T07:07:36;48319.25;;;-142.28;100.00
4149;BME280;2088;51.032;7.082;2022-11-15T07:10:05;48323.13;;;-142.28;100.00
4149;BME280;2088;51.032;7.082;2022-11-15T07:12:32;48311.50;;;-142.28;100.00
4149;BME280;2088;51.032;7.082;2022-11-15T07:14:59;48296.03;;;-142.28;100.00
4149;BME280;2088;51.032;7.082;2022-11-15T07:17:25;48286.34;;;-142.28;100.00
4149;BME280;2088;51.032;7.082;2022-11-15T07:19:52;48292.16;;;-142.28;100.00
4149;BME280;2088;51.032;7.082;2022-11-15T07:22:18;48313.44;;;-142.28;100.00
4149;BME280;2088;51.032;7.082;2022-11-15T07:24:44;48321.19;;;-142.28;100.00
4149;BME280;2088;51.032;7.082;2022-11-15T07:27:12;48311.50;;;-142.28;100.00
4149;BME280;2088;51.032;7.082;2022-11-15T07:29:39;48303.78;;;-142.28;100.00
4149;BME280;2088;51.032;7.082;2022-11-15T07:32:05;48282.47;;;-142.28;100.00
4149;BME280;2088;51.032;7.082;2022-11-15T07:34:31;48319.25;;;-142.28;100.00
4149;BME280;2088;51.032;7.082;2022-11-15T07:36:58;48284.41;;;-142.28;100.00
4149;BME280;2088;51.032;7.082;2022-11-15T07:39:24;48301.84;;;-142.28;100.00
4149;BME280;2088;51.032;7.082;2022-11-15T07:41:51;48303.78;;;-142.28;100.00
4149;BME280;2088;51.032;7.082;2022-11-15T07:44:39;48305.69;;;-142.28;100.00
4149;BME280;2088;51.032;7.082;2022-11-15T07:47:05;48307.63;;;-142.28;100.00
4149;BME280;2088;51.032;7.082;2022-11-15T07:49:32;48311.50;;;-142.28;100.00
4149;BME280;2088;51.032;7.082;2022-11-15T07:51:58;48297.97;;;-142.28;100.00
4149;BME280;2088;51.032;7.082;2022-11-15T07:54:25;48278.59;;;-142.28;100.00
4149;BME280;2088;51.032;7.082;2022-11-15T07:56:51;48303.78;;;-142.28;100.00
4149;BME280;2088;51.032;7.082;2022-11-15T07:59:18;48288.28;;;-142.28;100.00
4149;BME280;2088;51.032;7.082;2022-11-15T08:01:46;48268.94;;;-142.28;100.00
4149;BME280;2088;51.032;7.082;2022-11-15T08:04:12;48296.03;;;-142.28;100.00
4149;BME280;2088;51.032;7.082;2022-11-15T08:06:39;48327.00;;;-142.28;100.00
4149;BME280;2088;51.032;7.082;2022-11-15T08:09:05;48276.66;;;-142.28;100.00
4149;BME280;2088;51.032;7.082;2022-11-15T08:11:32;48263.13;;;-142.28;100.00
4149;BME280;2088;51.032;7.082;2022-11-15T08:13:58;48296.03;;;-142.28;100.00
4149;BME280;2088;51.032;7.082;2022-11-15T08:16:25;48276.66;;;-142.28;100.00
4149;BME280;2088;51.032;7.082;2022-11-15T08:18:53;48276.66;;;-142.28;99.77
4149;BME280;2088;51.032;7.082;2022-11-15T08:21:20;48270.88;;;-142.28;99.08
4149;BME280;2088;51.032;7.082;2022-11-15T08:23:47;48272.81;;;-142.28;98.21
4149;BME280;2088;51.032;7.082;2022-11-15T08:26:14;48265.06;;;-142.28;97.61
4149;BME280;2088;51.032;7.082;2022-11-15T08:28:40;48263.13;;;-142.28;97.80
4149;BME280;2088;51.032;7.082;2022-11-15T08:31:06;48261.19;;;-142.28;97.55
4149;BME280;2088;51.032;7.082;2022-11-15T08:33:33;48278.59;;;-142.28;97.52
4149;BME280;2088;51.032;7.082;2022-11-15T08:36:01;48276.66;;;-142.28;97.34
4149;BME280;2088;51.032;7.082;2022-11-15T08:38:27;48259.25;;;-142.28;96.43
4149;BME280;2088;51.032;7.082;2022-11-15T08:41:00;48263.13;;;-142.28;95.70
4149;BME280;2088;51.032;7.082;2022-11-15T08:43:27;48267.00;;;-142.28;95.49
4149;BME280;2088;51.032;7.082;2022-11-15T08:45:55;48239.91;;;-142.28;94.85
4149;BME280;2088;51.032;7.082;2022-11-15T08:48:22;48239.91;;;-142.28;94.46
4149;BME280;2088;51.032;7.082;2022-11-15T08:50:48;48239.91;;;-142.28;93.97
4149;BME280;2088;51.032;7.082;2022-11-15T08:53:16;48255.38;;;-142.28;93.88
4149;BME280;2088;51.032;7.082;2022-11-15T08:55:43;48214.75;;;-142.28;93.19
4149;BME280;2088;51.032;7.082;2022-11-15T08:58:09;48239.91;;;-142.28;93.06
4149;BME280;2088;51.032;7.082;2022-11-15T09:00:35;48230.22;;;-142.28;92.47
4149;BME280;2088;51.032;7.082;2022-11-15T09:03:03;48251.50;;;-142.28;91.65
4149;BME280;2088;51.032;7.082;2022-11-15T09:05:30;48232.16;;;-142.28;90.50
4149;BME280;2088;51.032;7.082;2022-11-15T09:07:56;48236.03;;;-142.28;90.54
4149;BME280;2088;51.032;7.082;2022-11-15T09:10:24;48210.88;;;-142.28;90.35
4149;BME280;2088;51.032;7.082;2022-11-15T09:12:51;48210.88;;;-142.28;90.51
4149;BME280;2088;51.032;7.082;2022-11-15T09:15:17;48205.06;;;-142.28;90.29
4149;BME280;2088;51.032;7.082;2022-11-15T09:17:45;48210.88;;;-142.28;89.85
4149;BME280;2088;51.032;7.082;2022-11-15T09:20:11;48220.56;;;-142.28;89.74
4149;BME280;2088;51.032;7.082;2022-11-15T09:22:38;48222.47;;;-142.28;89.67
4149;BME280;2088;51.032;7.082;2022-11-15T09:25:05;48241.84;;;-142.28;89.38
4149;BME280;2088;51.032;7.082;2022-11-15T09:27:34;48220.56;;;-142.28;88.56
4149;BME280;2088;51.032;7.082;2022-11-15T09:30:00;48205.06;;;-142.28;87.84
4149;BME280;2088;51.032;7.082;2022-11-15T09:32:28;48214.75;;;-142.28;87.56
4149;BME280;2088;51.032;7.082;2022-11-15T09:34:55;48197.31;;;-142.28;87.11
4149;BME280;2088;51.032;7.082;2022-11-15T09:37:21;48212.81;;;-142.28;85.69
4149;BME280;2088;51.032;7.082;2022-11-15T09:39:48;48212.81;;;-142.28;85.40
4149;BME280;2088;51.032;7.082;2022-11-15T09:42:41;48199.25;;;-142.28;84.88
4149;BME280;2088;51.032;7.082;2022-11-15T09:45:17;48222.47;;;-142.28;83.69
4149;BME280;2088;51.032;7.082;2022-11-15T09:48:09;48203.13;;;-142.28;82.52
4149;BME280;2088;51.032;7.082;2022-11-15T09:50:43;48172.16;;;-142.28;82.35
4149;BME280;2088;51.032;7.082;2022-11-15T09:53:14;48189.59;;;-142.28;81.25
4149;BME280;2088;51.032;7.082;2022-11-15T09:55:47;48177.97;;;-142.28;80.82
4149;BME280;2088;51.032;7.082;2022-11-15T09:58:22;48154.75;;;-142.28;80.64
4149;BME280;2088;51.032;7.082;2022-11-15T10:00:52;48172.16;;;-142.28;79.03
4149;BME280;2088;51.032;7.082;2022-11-15T10:03:23;48199.25;;;-142.28;78.74
4149;BME280;2088;51.032;7.082;2022-11-15T10:05:54;48162.50;;;-142.28;79.19
4149;BME280;2088;51.032;7.082;2022-11-15T10:11:22;48148.94;;;-142.28;77.43
4149;BME280;2088;51.032;7.082;2022-11-15T10:13:53;48145.06;;;-142.28;77.00
4149;BME280;2088;51.032;7.082;2022-11-15T10:16:41;48166.38;;;-142.28;76.05
4149;BME280;2088;51.032;7.082;2022-11-15T10:19:20;48145.06;;;-142.28;75.51
4149;BME280;2088;51.032;7.082;2022-11-15T10:21:59;48135.41;;;-142.28;72.90
4149;BME280;2088;51.032;7.082;2022-11-15T10:24:28;48150.88;;;-142.28;72.99
4149;BME280;2088;51.032;7.082;2022-11-15T10:26:54;48131.53;;;-142.28;71.69
4149;BME280;2088;51.032;7.082;2022-11-15T10:29:24;48129.59;;;-142.28;70.74
4149;BME280;2088;51.032;7.082;2022-11-15T10:31:51;48121.84;;;-142.28;69.80
4149;BME280;2088;51.032;7.082;2022-11-15T10:34:19;48135.41;;;-142.28;68.67
4149;BME280;2088;51.032;7.082;2022-11-15T10:36:53;48131.53;;;-142.28;67.68
4149;BME280;2088;51.032;7.082;2022-11-15T10:39:20;48112.19;;;-142.28;66.36
4149;BME280;2088;51.032;7.082;2022-11-15T10:41:47;48106.38;;;-142.28;67.25
4149;BME280;2088;51.032;7.082;2022-11-15T10:44:26;48106.38;;;-142.28;65.37
4149;BME280;2088;51.032;7.082;2022-11-15T10:47:21;48100.56;;;-142.28;64.78
4149;BME280;2088;51.032;7.082;2022-11-15T10:49:55;48116.06;;;-142.28;65.01
4149;BME280;2088;51.032;7.082;2022-11-15T10:52:22;48110.25;;;-142.28;64.35
4149;BME280;2088;51.032;7.082;2022-11-15T10:54:51;48094.75;;;-142.28;63.19
4149;BME280;2088;51.032;7.082;2022-11-15T10:57:22;48081.22;;;-142.28;59.44
4149;BME280;2088;51.032;7.082;2022-11-15T10:59:53;48083.16;;;-142.28;59.98
4149;BME280;2088;51.032;7.082;2022-11-15T11:02:28;48106.38;;;-142.28;58.95
4149;BME280;2088;51.032;7.082;2022-11-15T11:04:55;48096.69;;;-142.28;59.85
4149;BME280;2088;51.032;7.082;2022-11-15T11:07:23;48094.75;;;-142.28;59.53
4149;BME280;2088;51.032;7.082;2022-11-15T11:09:57;48073.47;;;-142.28;58.10
4149;BME280;2088;51.032;7.082;2022-11-15T11:12:27;48088.97;;;-142.28;56.28
4149;BME280;2088;51.032;7.082;2022-11-15T11:14:57;48106.38;;;-142.28;55.66
4149;BME280;2088;51.032;7.082;2022-11-15T11:17:32;48052.19;;;-142.28;56.16
4149;BME280;2088;51.032;7.082;2022-11-15T11:20:08;48056.06;;;-142.28;54.91
4149;BME280;2088;51.032;7.082;2022-11-15T11:22:53;48094.75;;;-142.28;54.96
4149;BME280;2088;51.032;7.082;2022-11-15T11:25:28;48100.56;;;-142.28;55.19
4149;BME280;2088;51.032;7.082;2022-11-15T11:28:10;48081.22;;;-142.28;54.54
4149;BME280;2088;51.032;7.082;2022-11-15T11:30:49;48087.03;;;-142.28;54.18
4149;BME280;2088;51.032;7.082;2022-11-15T11:33:22;48073.47;;;-142.28;54.16
4149;BME280;2088;51.032;7.082;2022-11-15T11:36:02;48067.66;;;-142.28;53.27
4149;BME280;2088;51.032;7.082;2022-11-15T11:38:49;48087.03;;;-142.28;53.23
4149;BME280;2088;51.032;7.082;2022-11-15T11:41:24;48079.28;;;-142.28;53.16
4149;BME280;2088;51.032;7.082;2022-11-15T11:44:02;48094.75;;;-142.28;53.69
4149;BME280;2088;51.032;7.082;2022-11-15T11:46:45;48098.63;;;-142.28;54.45
4149;BME280;2088;51.032;7.082;2022-11-15T11:49:18;48087.03;;;-142.28;55.41
4149;BME280;2088;51.032;7.082;2022-11-15T11:51:49;48098.63;;;-142.28;55.73
4149;BME280;2088;51.032;7.082;2022-11-15T11:54:22;48087.03;;;-142.28;55.47
4149;BME280;2088;51.032;7.082;2022-11-15T11:56:50;48106.38;;;-142.28;55.10
4149;BME280;2088;51.032;7.082;2022-11-15T11:59:22;48092.81;;;-142.28;54.81
4149;BME280;2088;51.032;7.082;2022-11-15T12:01:54;48090.88;;;-142.28;53.39
4149;BME280;2088;51.032;7.082;2022-11-15T12:04:23;48090.88;;;-142.28;52.16
4149;BME280;2088;51.032;7.082;2022-11-15T12:06:56;48085.09;;;-142.28;51.09
4149;BME280;2088;51.032;7.082;2022-11-15T12:09:30;48058.00;;;-142.28;50.27
4149;BME280;2088;51.032;7.082;2022-11-15T12:12:02;48056.06;;;-142.28;48.46
4149;BME280;2088;51.032;7.082;2022-11-15T12:14:35;48073.47;;;-142.28;48.29
4149;BME280;2088;51.032;7.082;2022-11-15T12:17:05;48052.19;;;-142.28;47.46
4149;BME280;2088;51.032;7.082;2022-11-15T12:19:31;48100.56;;;-142.28;47.67
4149;BME280;2088;51.032;7.082;2022-11-15T12:22:02;48079.28;;;-142.28;48.43
4149;BME280;2088;51.032;7.082;2022-11-15T12:24:34;48090.88;;;-142.28;47.92
4149;BME280;2088;51.032;7.082;2022-11-15T12:27:06;48061.88;;;-142.28;47.37
4149;BME280;2088;51.032;7.082;2022-11-15T12:29:37;48052.19;;;-142.28;46.23
4149;BME280;2088;51.032;7.082;2022-11-15T12:32:17;48063.78;;;-142.28;45.73
4149;BME280;2088;51.032;7.082;2022-11-15T12:34:46;48065.72;;;-142.28;47.33
4149;BME280;2088;51.032;7.082;2022-11-15T12:37:50;48100.56;;;-142.28;47.93
4149;BME280;2088;51.032;7.082;2022-11-15T12:40:32;48063.78;;;-142.28;48.22
4149;BME280;2088;51.032;7.082;2022-11-15T12:43:05;48094.75;;;-142.28;47.98
4149;BME280;2088;51.032;7.082;2022-11-15T12:45:50;48059.94;;;-142.28;48.04
4149;BME280;2088;51.032;7.082;2022-11-15T12:57:41;48100.56;;;-142.28;51.54
4149;BME280;2088;51.032;7.082;2022-11-15T13:00:37;48098.63;;;-142.28;52.56
4149;BME280;2088;51.032;7.082;2022-11-15T13:03:19;48094.75;;;-142.28;53.84
4149;BME280;2088;51.032;7.082;2022-11-15T13:05:56;48104.44;;;-142.28;54.74
4149;BME280;2088;51.032;7.082;2022-11-15T13:08:46;48116.06;;;-142.28;55.41
4149;BME280;2088;51.032;7.082;2022-11-15T13:11:42;48096.69;;;-142.28;56.72
4149;BME280;2088;51.032;7.082;2022-11-15T13:14:42;48108.31;;;-142.28;57.18
4149;BME280;2088;51.032;7.082;2022-11-15T13:17:32;48129.59;;;-142.28;59.23
4149;BME280;2088;51.032;7.082;2022-11-15T13:20:14;48133.47;;;-142.28;59.82
4149;BME280;2088;51.032;7.082;2022-11-15T13:22:44;48117.97;;;-142.28;60.04
4149;BME280;2088;51.032;7.082;2022-11-15T13:25:20;48112.19;;;-142.28;60.19